sensor_id;sensor_type;location;lat;lon;timestamp;temperature;humidity
23495;DHT22;26107;50.832;2.950;2023-04-06T00:00:09;9.90;99.90
23495;DHT22;26107;50.832;2.950;2023-04-06T00:15:10;9.50;99.90
23495;DHT22;26107;50.832;2.950;2023-04-06T00:30:11;9.70;99.90
23495;DHT22;26107;50.832;2.950;2023-04-06T00:45:12;9.70;99.90
23495;DHT22;26107;50.832;2.950;2023-04-06T01:00:13;9.50;99.90
23495;DHT22;26107;50.832;2.950;2023-04-06T01:15:14;9.00;99.90
23495;DHT22;26107;50.832;2.950;2023-04-06T01:30:15;8.90;99.90
23495;DHT22;26107;50.832;2.950;2023-04-06T01:45:17;9.30;99.90
23495;DHT22;26107;50.832;2.950;2023-04-06T02:00:18;9.30;99.90
23495;DHT22;26107;50.832;2.950;2023-04-06T02:15:19;9.20;99.90
23495;DHT22;26107;50.832;2.950;2023-04-06T02:30:19;9.40;99.90
23495;DHT22;26107;50.832;2.950;2023-04-06T02:45:20;8.70;99.90
23495;DHT22;26107;50.832;2.950;2023-04-06T03:00:20;8.90;99.90
23495;DHT22;26107;50.832;2.950;2023-04-06T03:15:21;9.10;99.90
23495;DHT22;26107;50.832;2.950;2023-04-06T03:30:22;8.80;99.90
23495;DHT22;26107;50.832;2.950;2023-04-06T03:45:22;8.30;99.90
23495;DHT22;26107;50.832;2.950;2023-04-06T04:00:24;8.50;99.90
23495;DHT22;26107;50.832;2.950;2023-04-06T04:15:24;8.60;99.90
23495;DHT22;26107;50.832;2.950;2023-04-06T04:30:25;8.80;99.90
23495;DHT22;26107;50.832;2.950;2023-04-06T04:45:26;8.60;99.90
23495;DHT22;26107;50.832;2.950;2023-04-06T05:00:26;8.70;99.90
23495;DHT22;26107;50.832;2.950;2023-04-06T05:15:27;8.70;99.90
23495;DHT22;26107;50.832;2.950;2023-04-06T05:30:28;8.60;99.90
23495;DHT22;26107;50.832;2.950;2023-04-06T05:45:30;8.60;99.90
23495;DHT22;26107;50.832;2.950;2023-04-06T06:00:30;8.80;99.90
23495;DHT22;26107;50.832;2.950;2023-04-06T06:15:31;8.40;99.90
23495;DHT22;26107;50.832;2.950;2023-04-06T06:30:31;8.50;99.90
23495;DHT22;26107;50.832;2.950;2023-04-06T06:45:33;8.60;99.90
23495;DHT22;26107;50.832;2.950;2023-04-06T07:00:33;8.50;99.90
23495;DHT22;26107;50.832;2.950;2023-04-06T07:15:34;8.50;99.90
23495;DHT22;26107;50.832;2.950;2023-04-06T07:30:37;8.40;99.90
23495;DHT22;26107;50.832;2.950;2023-04-06T07:45:38;8.40;99.90
23495;DHT22;26107;50.832;2.950;2023-04-06T08:00:38;8.50;99.90
23495;DHT22;26107;50.832;2.950;2023-04-06T08:15:39;8.60;99.90
23495;DHT22;26107;50.832;2.950;2023-04-06T08:30:41;8.50;99.90
23495;DHT22;26107;50.832;2.950;2023-04-06T08:45:42;8.40;99.90
23495;DHT22;26107;50.832;2.950;2023-04-06T09:00:43;8.50;99.90
23495;DHT22;26107;50.832;2.950;2023-04-06T09:15:44;8.40;99.90
23495;DHT22;26107;50.832;2.950;2023-04-06T09:30:48;8.60;99.90
23495;DHT22;26107;50.832;2.950;2023-04-06T09:45:53;8.60;99.90
23495;DHT22;26107;50.832;2.950;2023-04-06T10:01:10;8.60;99.90
23495;DHT22;26107;50.832;2.950;2023-04-06T10:16:14;8.80;99.90
23495;DHT22;26107;50.832;2.950;2023-04-06T10:31:15;8.80;99.90
23495;DHT22;26107;50.832;2.950;2023-04-06T10:46:29;8.90;99.90
23495;DHT22;26107;50.832;2.950;2023-04-06T11:01:30;9.00;99.90
23495;DHT22;26107;50.832;2.950;2023-04-06T11:16:32;9.30;99.90
23495;DHT22;26107;50.832;2.950;2023-04-06T11:31:44;9.70;99.90
23495;DHT22;26107;50.832;2.950;2023-04-06T11:46:56;9.80;99.90
23495;DHT22;26107;50.832;2.950;2023-04-06T12:01:57;10.00;99.90
23495;DHT22;26107;50.832;2.950;2023-04-06T12:16:58;10.10;99.90
23495;DHT22;26107;50.832;2.950;2023-04-06T12:31:59;10.40;99.90
23495;DHT22;26107;50.832;2.950;2023-04-06T12:47:01;10.60;99.90
23495;DHT22;26107;50.832;2.950;2023-04-06T13:02:03;10.90;99.90
23495;DHT22;26107;50.832;2.950;2023-04-06T13:17:05;11.20;99.90
23495;DHT22;26107;50.832;2.950;2023-04-06T13:32:05;11.30;99.90
23495;DHT22;26107;50.832;2.950;2023-04-06T13:47:06;11.70;99.90
23495;DHT22;26107;50.832;2.950;2023-04-06T14:02:08;12.10;99.90
23495;DHT22;26107;50.832;2.950;2023-04-06T14:17:09;12.20;99.90
23495;DHT22;26107;50.832;2.950;2023-04-06T14:32:10;12.60;99.90
23495;DHT22;26107;50.832;2.950;2023-04-06T14:47:11;12.50;99.90
23495;DHT22;26107;50.832;2.950;2023-04-06T15:02:15;12.70;99.90
23495;DHT22;26107;50.832;2.950;2023-04-06T15:17:17;12.70;99.90
23495;DHT22;26107;50.832;2.950;2023-04-06T15:32:17;12.50;99.90
23495;DHT22;26107;50.832;2.950;2023-04-06T15:47:18;12.30;99.90
23495;DHT22;26107;50.832;2.950;2023-04-06T16:02:19;12.20;99.90
23495;DHT22;26107;50.832;2.950;2023-04-06T16:17:19;12.20;99.90
23495;DHT22;26107;50.832;2.950;2023-04-06T16:32:20;12.00;99.90
23495;DHT22;26107;50.832;2.950;2023-04-06T16:47:21;12.70;99.90
23495;DHT22;26107;50.832;2.950;2023-04-06T17:02:23;12.10;99.90
23495;DHT22;26107;50.832;2.950;2023-04-06T17:17:24;11.80;99.90
23495;DHT22;26107;50.832;2.950;2023-04-06T17:32:25;11.60;99.90
23495;DHT22;26107;50.832;2.950;2023-04-06T17:47:27;11.40;99.90
23495;DHT22;26107;50.832;2.950;2023-04-06T18:02:31;11.50;99.90
23495;DHT22;26107;50.832;2.950;2023-04-06T18:17:32;11.00;99.90
23495;DHT22;26107;50.832;2.950;2023-04-06T18:32:33;10.90;99.90
23495;DHT22;26107;50.832;2.950;2023-04-06T18:47:34;10.70;99.90
23495;DHT22;26107;50.832;2.950;2023-04-06T19:02:34;10.80;99.90
23495;DHT22;26107;50.832;2.950;2023-04-06T19:17:35;10.90;99.90
23495;DHT22;26107;50.832;2.950;2023-04-06T19:32:38;10.70;99.90
23495;DHT22;26107;50.832;2.950;2023-04-06T19:47:39;10.70;99.90
23495;DHT22;26107;50.832;2.950;2023-04-06T20:02:39;10.70;99.90
23495;DHT22;26107;50.832;2.950;2023-04-06T20:17:40;10.50;99.90
23495;DHT22;26107;50.832;2.950;2023-04-06T20:32:42;10.30;99.90
23495;DHT22;26107;50.832;2.950;2023-04-06T20:47:43;9.80;99.90
23495;DHT22;26107;50.832;2.950;2023-04-06T21:02:45;9.50;99.90
23495;DHT22;26107;50.832;2.950;2023-04-06T21:17:45;9.50;99.90
23495;DHT22;26107;50.832;2.950;2023-04-06T21:32:46;9.70;99.90
23495;DHT22;26107;50.832;2.950;2023-04-06T21:47:46;9.90;99.90
23495;DHT22;26107;50.832;2.950;2023-04-06T22:02:47;10.00;99.90
23495;DHT22;26107;50.832;2.950;2023-04-06T22:17:48;10.10;99.90
23495;DHT22;26107;50.832;2.950;2023-04-06T22:32:48;10.00;99.90
23495;DHT22;26107;50.832;2.950;2023-04-06T22:47:49;9.90;99.90
23495;DHT22;26107;50.832;2.950;2023-04-06T23:02:49;9.90;99.90
23495;DHT22;26107;50.832;2.950;2023-04-06T23:17:50;9.80;99.90
23495;DHT22;26107;50.832;2.950;2023-04-06T23:32:51;10.00;99.90
23495;DHT22;26107;50.832;2.950;2023-04-06T23:47:51;9.90;99.90
